Time;durP1;ratioP1;P1;durP2;ratioP2;P2;SDS_P1;SDS_P2;PMS_P1;PMS_P2;Temp;Humidity;BMP_temperature;BMP_pressure;BME280_temperature;BME280_humidity;BME280_pressure;Samples;Min_cycle;Max_cycle;Signal;HPM_P1;HPM_P2
2023/04/29 00:01:25;;;;;;;11.32;8.70;;;15.00;69.70;;;;;;5001686;28;20041;-75
2023/04/29 00:03:52;;;;;;;11.95;9.32;;;15.00;69.70;;;;;;5018451;28;20355;-74
2023/04/29 00:06:17;;;;;;;12.25;9.40;;;15.00;69.70;;;;;;5017893;28;20116;-74
2023/04/29 00:08:43;;;;;;;12.20;9.90;;;15.00;69.70;;;;;;5017658;28;20566;-74
2023/04/29 00:11:10;;;;;;;12.88;9.68;;;15.00;69.70;;;;;;5017674;28;20390;-77
2023/04/29 00:13:38;;;;;;;12.68;9.52;;;15.00;69.70;;;;;;5017775;28;20537;-77
2023/04/29 00:16:04;;;;;;;11.32;9.32;;;14.90;69.70;;;;;;5017936;28;20080;-77
2023/04/29 00:18:31;;;;;;;11.88;9.15;;;15.00;69.80;;;;;;4984863;28;20124;-76
2023/04/29 00:20:57;;;;;;;12.32;9.75;;;14.90;70.40;;;;;;5017474;28;20041;-77
2023/04/29 00:23:23;;;;;;;11.57;9.27;;;14.90;69.70;;;;;;5017120;28;20038;-76
2023/04/29 00:25:50;;;;;;;12.20;9.45;;;14.90;69.80;;;;;;4968990;28;20029;-77
2023/04/29 00:28:16;;;;;;;12.43;9.75;;;14.90;69.80;;;;;;4969169;28;20409;-76
2023/04/29 00:30:42;;;;;;;13.52;9.48;;;14.90;69.80;;;;;;5000765;28;20034;-76
2023/04/29 00:33:07;;;;;;;11.30;8.85;;;14.80;69.80;;;;;;5000813;28;20036;-76
2023/04/29 00:35:34;;;;;;;11.70;9.45;;;14.80;69.80;;;;;;4985184;28;20040;-76
2023/04/29 00:38:00;;;;;;;10.93;9.15;;;14.80;69.80;;;;;;5001368;28;20367;-77
2023/04/29 00:40:27;;;;;;;13.43;9.60;;;14.80;69.80;;;;;;4984648;28;20033;-77
2023/04/29 00:42:53;;;;;;;10.90;8.82;;;14.80;69.90;;;;;;5035284;28;20061;-76
2023/04/29 00:45:19;;;;;;;10.95;8.75;;;14.70;69.80;;;;;;5017169;28;20144;-76
2023/04/29 00:47:45;;;;;;;11.75;9.52;;;14.80;69.90;;;;;;5017070;28;20057;-77
2023/04/29 00:50:11;;;;;;;11.77;9.02;;;14.70;69.90;;;;;;5000317;28;20053;-76
2023/04/29 00:52:39;;;;;;;11.68;9.63;;;14.70;69.90;;;;;;5000248;28;20034;-77
2023/04/29 00:55:07;;;;;;;11.90;9.23;;;14.70;69.90;;;;;;5000261;28;20025;-76
2023/04/29 00:57:34;;;;;;;11.05;8.82;;;14.70;70.00;;;;;;5016895;28;20025;-76
2023/04/29 01:00:00;;;;;;;11.52;9.30;;;14.70;70.00;;;;;;5017413;28;20041;-76
2023/04/29 01:02:27;;;;;;;11.13;8.80;;;14.70;70.00;;;;;;5000264;28;20037;-76
2023/04/29 01:04:52;;;;;;;12.25;9.35;;;14.60;70.00;;;;;;5016980;28;20041;-76
2023/04/29 01:07:26;;;;;;;12.80;9.82;;;14.60;70.00;;;;;;5000888;28;20034;-76
2023/04/29 01:10:09;;;;;;;12.15;9.10;;;14.60;70.00;;;;;;5017507;28;20041;-76
2023/04/29 01:12:35;;;;;;;11.50;9.45;;;14.60;70.00;;;;;;5016869;28;20037;-77
2023/04/29 01:15:08;;;;;;;11.45;8.98;;;14.60;70.00;;;;;;5000381;28;20025;-77
2023/04/29 01:17:50;;;;;;;10.93;8.82;;;14.60;70.00;;;;;;5000070;28;20017;-76
2023/04/29 01:20:19;;;;;;;12.27;8.45;;;14.60;70.10;;;;;;5016385;28;20026;-77
2023/04/29 01:22:46;;;;;;;9.85;7.65;;;14.50;70.00;;;;;;5016519;28;20029;-77
2023/04/29 01:25:12;;;;;;;10.73;8.25;;;14.50;70.10;;;;;;5000664;28;20451;-77
2023/04/29 01:28:10;;;;;;;11.05;8.43;;;14.50;70.10;;;;;;5019274;28;20091;-77
2023/04/29 01:30:41;;;;;;;10.13;8.38;;;14.50;70.10;;;;;;5016426;28;20044;-76
2023/04/29 01:33:19;;;;;;;10.80;8.02;;;14.50;70.10;;;;;;5016816;28;20063;-77
2023/04/29 01:36:31;;;;;;;10.15;8.25;;;14.50;70.20;;;;;;5016380;28;20026;-77
2023/04/29 01:39:20;;;;;;;10.80;7.90;;;14.40;70.10;;;;;;4999948;28;20470;-77
2023/04/29 01:42:10;;;;;;;9.20;7.63;;;14.40;70.10;;;;;;5016207;28;20030;-77
2023/04/29 01:44:38;;;;;;;9.00;7.18;;;14.40;70.10;;;;;;5033643;28;20030;-76
2023/04/29 01:47:05;;;;;;;10.32;7.95;;;14.40;70.20;;;;;;5015833;28;20494;-77
2023/04/29 01:49:38;;;;;;;10.43;8.43;;;14.40;70.20;;;;;;5016035;28;20038;-76
2023/04/29 01:52:05;;;;;;;9.00;7.25;;;14.40;70.20;;;;;;4983631;28;20057;-76
2023/04/29 01:54:35;;;;;;;9.65;8.20;;;14.30;70.20;;;;;;5015520;28;20026;-76
2023/04/29 01:57:02;;;;;;;10.10;7.90;;;14.40;70.20;;;;;;4999043;28;20124;-77
2023/04/29 01:59:48;;;;;;;9.60;7.22;;;14.30;70.20;;;;;;5017860;28;20037;-76
2023/04/29 02:02:36;;;;;;;9.35;7.53;;;14.30;70.20;;;;;;4992512;28;20042;-77
2023/04/29 02:05:22;;;;;;;8.32;6.60;;;14.30;70.10;;;;;;5002364;28;20483;-77
2023/04/29 02:07:56;;;;;;;9.18;7.30;;;14.30;70.20;;;;;;5001338;28;20099;-76
2023/04/29 02:10:22;;;;;;;10.30;7.63;;;14.30;70.20;;;;;;4983927;28;20468;-76
2023/04/29 02:12:57;;;;;;;9.80;7.88;;;14.20;70.20;;;;;;5000908;28;20021;-77
2023/04/29 02:15:26;;;;;;;8.75;7.07;;;14.20;70.20;;;;;;4998811;28;20115;-76
2023/04/29 02:17:53;;;;;;;8.85;7.10;;;14.30;70.30;;;;;;4995934;28;20498;-76
2023/04/29 02:20:19;;;;;;;10.25;7.50;;;14.20;70.30;;;;;;4999331;28;20029;-76
2023/04/29 02:22:45;;;;;;;9.27;7.20;;;14.20;70.30;;;;;;5015745;28;20408;-77
2023/04/29 02:25:11;;;;;;;9.38;7.57;;;14.20;70.40;;;;;;5015412;28;20034;-76
2023/04/29 02:27:37;;;;;;;9.75;7.43;;;14.20;70.30;;;;;;4998800;28;20030;-77
2023/04/29 02:30:04;;;;;;;10.52;7.43;;;14.20;70.30;;;;;;4999396;28;20556;-77
2023/04/29 02:32:30;;;;;;;8.40;6.68;;;14.20;70.30;;;;;;5015423;28;20052;-76
2023/04/29 02:34:56;;;;;;;10.65;7.60;;;14.20;70.30;;;;;;4999196;28;20057;-77
2023/04/29 02:37:22;;;;;;;9.18;7.18;;;14.20;70.30;;;;;;4999680;28;20041;-76
2023/04/29 02:39:48;;;;;;;8.88;7.25;;;14.20;70.40;;;;;;4966896;28;20029;-76
2023/04/29 02:42:14;;;;;;;9.55;7.10;;;14.10;70.30;;;;;;5032688;28;20135;-76
2023/04/29 02:44:41;;;;;;;9.77;7.68;;;14.10;70.30;;;;;;4999910;28;20033;-76
2023/04/29 02:47:07;;;;;;;8.82;6.82;;;14.10;70.30;;;;;;4998917;28;20106;-76
2023/04/29 02:49:33;;;;;;;9.27;6.93;;;14.10;70.30;;;;;;5015084;28;20057;-76
2023/04/29 02:51:59;;;;;;;10.40;7.78;;;14.10;70.30;;;;;;4982505;28;20041;-76
2023/04/29 02:54:25;;;;;;;8.65;6.68;;;14.10;70.30;;;;;;4999126;28;20084;-76
2023/04/29 02:56:50;;;;;;;9.52;7.55;;;14.10;70.40;;;;;;4998851;28;20124;-77
2023/04/29 02:59:16;;;;;;;9.18;6.78;;;14.10;70.50;;;;;;5014892;28;20057;-77
2023/04/29 03:01:42;;;;;;;9.00;6.35;;;14.10;70.40;;;;;;4982742;28;20445;-77
2023/04/29 03:04:08;;;;;;;9.27;7.15;;;14.10;70.40;;;;;;4999775;28;20124;-77
2023/04/29 03:06:34;;;;;;;9.30;6.68;;;14.00;70.40;;;;;;5015049;28;20033;-77
2023/04/29 03:09:00;;;;;;;9.50;6.70;;;14.00;70.40;;;;;;4998587;28;20029;-76
2023/04/29 03:11:26;;;;;;;9.43;6.85;;;14.00;70.40;;;;;;5032928;28;20077;-76
2023/04/29 03:13:52;;;;;;;9.00;6.82;;;14.00;70.40;;;;;;5015720;28;20473;-77
2023/04/29 03:16:20;;;;;;;8.30;6.38;;;14.00;70.40;;;;;;4999374;28;20463;-76
2023/04/29 03:18:46;;;;;;;8.38;6.57;;;14.00;70.50;;;;;;5001662;28;20075;-76
2023/04/29 03:21:11;;;;;;;8.27;6.13;;;14.00;70.50;;;;;;4986678;28;20112;-76
2023/04/29 03:23:38;;;;;;;9.20;6.80;;;14.00;70.50;;;;;;5018710;28;20087;-76
2023/04/29 03:26:05;;;;;;;7.75;6.13;;;13.90;70.40;;;;;;5002111;28;20057;-77
2023/04/29 03:28:30;;;;;;;8.65;6.65;;;13.90;70.50;;;;;;5002310;28;20064;-77
2023/04/29 03:30:57;;;;;;;9.20;6.80;;;14.00;70.50;;;;;;4985785;28;20041;-76
2023/04/29 03:33:24;;;;;;;9.43;6.85;;;13.90;70.50;;;;;;4986283;28;20041;-76
2023/04/29 03:35:50;;;;;;;8.73;6.75;;;13.90;70.50;;;;;;5002267;28;20038;-76
2023/04/29 03:38:45;;;;;;;7.50;5.90;;;13.90;70.50;;;;;;5009700;28;20372;-76
2023/04/29 03:41:11;;;;;;;9.18;6.57;;;13.90;70.50;;;;;;5001833;28;20125;-77
2023/04/29 03:43:36;;;;;;;8.05;6.07;;;13.90;70.50;;;;;;5002006;28;20022;-77
2023/04/29 03:46:02;;;;;;;8.55;6.78;;;13.80;70.50;;;;;;5018711;28;20034;-76
2023/04/29 03:48:28;;;;;;;9.35;6.75;;;13.80;70.50;;;;;;5001628;28;20346;-76
2023/04/29 03:50:54;;;;;;;9.43;7.43;;;13.90;70.50;;;;;;4969364;28;20071;-76
2023/04/29 03:53:20;;;;;;;9.32;7.10;;;13.80;70.50;;;;;;5001695;28;20030;-76
2023/04/29 03:55:47;;;;;;;7.97;6.53;;;13.80;70.60;;;;;;5002466;28;20124;-77
2023/04/29 03:58:14;;;;;;;9.13;6.57;;;13.80;70.60;;;;;;5001761;28;20063;-76
2023/04/29 04:00:41;;;;;;;8.05;6.00;;;13.80;70.60;;;;;;5002347;28;20446;-77
2023/04/29 04:03:13;;;;;;;8.75;6.93;;;13.80;70.60;;;;;;5017997;28;20037;-76
2023/04/29 04:05:38;;;;;;;9.13;6.72;;;13.80;70.60;;;;;;4984968;28;20036;-77
2023/04/29 04:08:08;;;;;;;8.43;6.35;;;13.80;70.60;;;;;;5002694;28;20489;-76
2023/04/29 04:10:33;;;;;;;7.97;6.10;;;13.80;70.70;;;;;;5001307;28;20077;-76
2023/04/29 04:13:02;;;;;;;8.30;6.78;;;13.80;70.70;;;;;;5002417;28;20022;-76
2023/04/29 04:15:28;;;;;;;8.23;6.55;;;13.70;70.60;;;;;;5001123;28;20477;-76
2023/04/29 04:17:56;;;;;;;8.25;6.28;;;13.80;70.70;;;;;;4985602;28;20033;-76
2023/04/29 04:20:22;;;;;;;8.43;6.25;;;13.70;70.60;;;;;;5017065;28;20140;-76
2023/04/29 04:22:48;;;;;;;7.70;6.10;;;13.70;70.60;;;;;;5018122;28;20033;-76
2023/04/29 04:25:24;;;;;;;9.23;6.43;;;13.70;70.70;;;;;;5002675;28;20375;-76
2023/04/29 04:27:51;;;;;;;7.80;6.13;;;13.70;70.70;;;;;;5000767;28;20037;-76
2023/04/29 04:30:41;;;;;;;8.02;6.18;;;13.60;70.70;;;;;;4989138;28;20474;-77
2023/04/29 04:33:07;;;;;;;8.65;6.85;;;13.70;70.70;;;;;;5000860;28;20044;-76
2023/04/29 04:35:35;;;;;;;9.18;6.47;;;13.70;70.70;;;;;;5001341;28;20056;-77
2023/04/29 04:38:01;;;;;;;8.20;6.45;;;13.60;70.60;;;;;;5017270;28;20025;-76
2023/04/29 04:40:27;;;;;;;8.55;6.07;;;13.60;70.60;;;;;;5000674;28;20060;-76
2023/04/29 04:43:10;;;;;;;8.38;6.15;;;13.70;70.70;;;;;;4989368;28;20072;-76
2023/04/29 04:45:39;;;;;;;8.25;6.40;;;13.60;70.70;;;;;;5001426;28;20037;-76
2023/04/29 04:48:05;;;;;;;7.88;6.00;;;13.70;70.80;;;;;;4984261;28;20133;-76
2023/04/29 04:50:33;;;;;;;9.68;6.70;;;13.60;70.70;;;;;;4968832;28;20094;-76
2023/04/29 04:52:59;;;;;;;7.85;5.90;;;13.60;70.80;;;;;;5000720;28;20044;-77
2023/04/29 04:55:42;;;;;;;7.78;6.00;;;13.60;70.70;;;;;;5003129;28;20030;-76
2023/04/29 04:58:08;;;;;;;8.55;6.28;;;13.60;70.70;;;;;;5000395;28;20344;-77
2023/04/29 05:00:35;;;;;;;8.55;6.78;;;13.60;70.70;;;;;;5000659;28;20120;-76
2023/04/29 05:03:00;;;;;;;8.55;6.88;;;13.60;70.70;;;;;;5000617;28;20407;-77
2023/04/29 05:05:26;;;;;;;8.07;6.30;;;13.60;70.80;;;;;;4967902;28;20382;-77
2023/04/29 05:07:53;;;;;;;7.82;6.00;;;13.50;70.70;;;;;;5000555;28;20152;-76
2023/04/29 05:10:25;;;;;;;8.50;6.57;;;13.50;70.80;;;;;;4970694;28;20048;-76
2023/04/29 05:12:52;;;;;;;8.60;6.55;;;13.50;70.90;;;;;;5000988;28;20033;-76
2023/04/29 05:15:19;;;;;;;8.60;6.75;;;13.50;70.80;;;;;;4968187;28;20483;-76
2023/04/29 05:17:46;;;;;;;8.43;6.20;;;13.50;70.80;;;;;;5016637;28;20091;-77
2023/04/29 05:20:12;;;;;;;8.93;6.47;;;13.50;70.70;;;;;;5016398;28;20057;-77
2023/04/29 05:22:38;;;;;;;9.00;6.60;;;13.50;70.80;;;;;;5000097;28;20527;-76
2023/04/29 05:25:03;;;;;;;8.85;6.40;;;13.50;70.70;;;;;;5000656;28;20030;-76
2023/04/29 05:27:32;;;;;;;7.43;5.68;;;13.50;70.80;;;;;;5000379;28;20044;-76
2023/04/29 05:29:58;;;;;;;8.00;6.28;;;13.50;70.80;;;;;;5000049;28;20488;-76
2023/04/29 05:32:24;;;;;;;8.25;6.57;;;13.50;70.80;;;;;;4999874;28;20116;-76
2023/04/29 05:34:50;;;;;;;9.00;6.80;;;13.50;70.70;;;;;;5016232;28;20025;-76
2023/04/29 05:37:16;;;;;;;9.00;7.07;;;13.40;70.70;;;;;;5000059;28;20026;-77
2023/04/29 05:39:58;;;;;;;7.93;6.18;;;13.40;70.70;;;;;;5016178;28;20474;-77
2023/04/29 05:42:25;;;;;;;7.93;6.10;;;13.40;70.70;;;;;;5000394;28;20160;-76
2023/04/29 05:44:50;;;;;;;8.85;6.93;;;13.40;70.70;;;;;;5015920;28;20025;-76
2023/04/29 05:47:16;;;;;;;8.38;6.32;;;13.40;70.70;;;;;;4983726;28;20033;-76
2023/04/29 05:49:42;;;;;;;8.90;6.30;;;13.40;70.70;;;;;;4983756;28;20045;-76
2023/04/29 05:52:08;;;;;;;8.25;6.28;;;13.40;70.70;;;;;;4983472;28;20347;-76
2023/04/29 05:54:39;;;;;;;7.70;6.30;;;13.40;70.70;;;;;;5016506;28;20391;-76
2023/04/29 05:57:06;;;;;;;7.82;6.03;;;13.40;70.70;;;;;;4999483;28;20045;-76
2023/04/29 05:59:32;;;;;;;8.05;6.15;;;13.40;70.70;;;;;;5015767;28;20083;-76
2023/04/29 06:02:01;;;;;;;7.70;6.10;;;13.40;70.80;;;;;;5000096;28;20505;-76
2023/04/29 06:04:27;;;;;;;8.02;6.32;;;13.40;70.70;;;;;;4999516;28;20033;-76
2023/04/29 06:07:13;;;;;;;9.25;6.75;;;13.40;70.70;;;;;;5002838;28;20120;-76
2023/04/29 06:09:59;;;;;;;8.82;6.18;;;13.40;70.70;;;;;;5002602;28;20042;-76
2023/04/29 06:12:26;;;;;;;8.25;6.45;;;13.40;70.70;;;;;;4999233;28;20490;-76
2023/04/29 06:14:52;;;;;;;8.73;6.82;;;13.40;70.70;;;;;;4999109;28;20068;-76
2023/04/29 06:17:17;;;;;;;8.75;6.88;;;13.40;70.80;;;;;;5015958;28;20030;-76
2023/04/29 06:19:43;;;;;;;8.30;6.28;;;13.40;70.80;;;;;;4999038;28;20505;-76
2023/04/29 06:22:09;;;;;;;8.15;6.13;;;13.40;70.80;;;;;;4999158;28;20096;-77
2023/04/29 06:24:36;;;;;;;9.23;7.00;;;13.40;70.80;;;;;;4999558;28;20131;-76
2023/04/29 06:27:03;;;;;;;8.15;6.90;;;13.40;70.80;;;;;;4999483;28;20034;-77
2023/04/29 06:29:29;;;;;;;8.00;6.07;;;13.40;70.80;;;;;;4999334;28;20041;-76
2023/04/29 06:31:55;;;;;;;8.63;6.45;;;13.40;70.80;;;;;;4999022;28;20036;-77
2023/04/29 06:34:21;;;;;;;8.18;6.85;;;13.40;71.50;;;;;;4983441;28;20131;-77
2023/04/29 06:37:19;;;;;;;8.45;6.18;;;13.40;70.90;;;;;;4990220;28;20025;-76
2023/04/29 06:40:06;;;;;;;7.97;6.32;;;13.50;70.90;;;;;;5000842;28;20083;-76
2023/04/29 06:42:51;;;;;;;8.68;6.55;;;13.50;70.90;;;;;;5018019;28;20497;-76
2023/04/29 06:45:40;;;;;;;7.78;6.05;;;13.50;70.80;;;;;;5007872;28;20042;-76
2023/04/29 06:48:18;;;;;;;7.90;6.15;;;13.50;70.80;;;;;;5001390;28;20056;-77
2023/04/29 06:50:54;;;;;;;8.68;6.82;;;13.50;70.80;;;;;;5015813;28;20140;-76
2023/04/29 06:53:20;;;;;;;8.75;6.75;;;13.50;70.90;;;;;;5037014;28;20030;-76
2023/04/29 06:55:46;;;;;;;7.88;6.20;;;13.50;70.90;;;;;;5036492;28;20025;-76
2023/04/29 06:58:13;;;;;;;8.93;6.80;;;13.50;70.90;;;;;;5003424;28;20084;-76
2023/04/29 07:00:39;;;;;;;9.60;7.00;;;13.50;70.90;;;;;;5018867;28;20061;-76
2023/04/29 07:03:06;;;;;;;8.68;6.85;;;13.50;71.00;;;;;;5019522;28;20132;-77
2023/04/29 07:05:32;;;;;;;8.63;6.38;;;13.50;70.90;;;;;;5018832;28;20033;-76
2023/04/29 07:07:58;;;;;;;9.57;6.82;;;13.60;71.00;;;;;;5019580;28;20551;-76
2023/04/29 07:10:25;;;;;;;8.15;6.47;;;13.60;71.00;;;;;;5003158;28;20402;-76
2023/04/29 07:12:53;;;;;;;8.15;6.25;;;13.60;71.00;;;;;;5003407;28;20124;-76
2023/04/29 07:15:20;;;;;;;8.65;6.50;;;13.60;70.90;;;;;;5002496;28;20033;-76
2023/04/29 07:17:46;;;;;;;8.63;7.13;;;13.60;70.90;;;;;;5002412;28;20025;-77
2023/04/29 07:20:13;;;;;;;8.02;6.22;;;13.60;70.90;;;;;;5002126;28;20050;-76
2023/04/29 07:22:38;;;;;;;8.70;6.68;;;13.60;70.90;;;;;;5002126;28;20394;-76
2023/04/29 07:25:05;;;;;;;7.72;6.65;;;13.70;71.00;;;;;;5002055;28;20026;-76
2023/04/29 07:27:33;;;;;;;8.15;6.47;;;13.70;70.90;;;;;;5001949;28;20371;-76
2023/04/29 07:30:00;;;;;;;9.77;7.32;;;13.60;70.90;;;;;;5036476;28;20042;-76
2023/04/29 07:32:26;;;;;;;10.27;6.97;;;13.70;70.90;;;;;;5018127;28;20127;-77
2023/04/29 07:34:52;;;;;;;7.75;6.00;;;13.70;70.90;;;;;;5002617;28;20041;-77
2023/04/29 07:37:19;;;;;;;9.20;7.32;;;13.70;70.90;;;;;;5002262;28;20025;-77
2023/04/29 07:39:46;;;;;;;9.88;6.78;;;13.70;70.90;;;;;;5001961;28;20041;-77
2023/04/29 07:42:12;;;;;;;9.57;6.63;;;13.70;70.90;;;;;;4985485;28;20036;-77
2023/04/29 07:44:38;;;;;;;8.40;6.30;;;13.70;71.00;;;;;;5018060;28;20034;-76
2023/04/29 07:47:04;;;;;;;8.90;6.25;;;13.80;71.00;;;;;;5001644;28;20464;-77
2023/04/29 07:49:30;;;;;;;9.32;6.93;;;13.80;71.00;;;;;;5002298;28;20132;-76
2023/04/29 07:51:56;;;;;;;9.25;6.75;;;13.80;71.00;;;;;;5018054;28;20029;-76
2023/04/29 07:54:22;;;;;;;8.27;6.93;;;13.80;70.90;;;;;;5018036;28;20044;-77
2023/04/29 07:56:48;;;;;;;8.25;6.30;;;13.80;70.90;;;;;;5001827;28;20029;-76
2023/04/29 07:59:14;;;;;;;7.85;6.68;;;13.90;71.00;;;;;;5017586;28;20025;-76
2023/04/29 08:01:41;;;;;;;7.40;6.00;;;13.90;70.90;;;;;;5017739;28;20034;-76
2023/04/29 08:04:07;;;;;;;9.10;6.57;;;14.00;70.90;;;;;;5017249;28;20021;-77
2023/04/29 08:06:40;;;;;;;8.23;6.63;;;14.00;70.90;;;;;;5017550;28;20498;-77
2023/04/29 08:09:08;;;;;;;8.20;6.50;;;14.00;70.90;;;;;;5001311;28;20021;-77
2023/04/29 08:11:34;;;;;;;8.50;6.68;;;14.00;70.80;;;;;;5001277;28;20037;-77
2023/04/29 08:14:00;;;;;;;8.13;6.25;;;14.10;70.80;;;;;;5002304;28;20041;-77
2023/04/29 08:16:25;;;;;;;8.20;6.22;;;14.10;70.80;;;;;;5017637;28;20087;-77
2023/04/29 08:18:52;;;;;;;8.88;6.18;;;14.10;70.70;;;;;;5001224;28;20486;-77
2023/04/29 08:21:18;;;;;;;8.73;6.18;;;14.20;70.70;;;;;;5001088;28;20053;-77
2023/04/29 08:23:44;;;;;;;8.15;6.13;;;14.20;70.70;;;;;;5000941;28;20033;-76
2023/04/29 08:26:11;;;;;;;8.02;5.88;;;14.20;70.60;;;;;;5001060;28;20038;-76
2023/04/29 08:28:38;;;;;;;7.50;5.70;;;14.30;70.70;;;;;;5017192;28;20045;-77
2023/04/29 08:31:06;;;;;;;7.75;5.78;;;14.30;70.60;;;;;;5001002;28;20068;-77
2023/04/29 08:33:38;;;;;;;7.00;5.72;;;14.30;70.50;;;;;;5017369;28;20037;-77
2023/04/29 08:36:04;;;;;;;7.60;6.05;;;14.40;70.50;;;;;;5000857;28;20100;-77
2023/04/29 08:38:30;;;;;;;8.00;5.55;;;14.50;70.50;;;;;;5001158;28;20425;-78
2023/04/29 08:40:55;;;;;;;7.10;5.53;;;14.50;70.40;;;;;;5017857;28;20037;-78
2023/04/29 08:43:21;;;;;;;7.85;5.55;;;14.50;70.40;;;;;;5016933;28;20053;-79
2023/04/29 08:45:50;;;;;;;7.03;5.03;;;14.60;70.30;;;;;;5001360;28;20351;-79
2023/04/29 08:48:17;;;;;;;7.65;5.43;;;14.60;70.30;;;;;;5000306;28;20064;-78
2023/04/29 08:50:43;;;;;;;7.55;5.32;;;14.60;70.20;;;;;;5016809;28;20128;-78
2023/04/29 08:53:10;;;;;;;7.55;5.90;;;14.70;70.20;;;;;;5000409;28;20026;-77
2023/04/29 08:55:44;;;;;;;6.53;5.18;;;14.70;70.10;;;;;;5034188;28;20041;-77
2023/04/29 08:58:11;;;;;;;6.63;5.22;;;14.80;70.20;;;;;;5017135;28;20076;-77
2023/04/29 09:00:38;;;;;;;6.63;5.07;;;14.90;70.10;;;;;;5016480;28;20481;-78
2023/04/29 09:03:47;;;;;;;7.68;5.43;;;14.90;70.00;;;;;;5016492;28;20030;-77
2023/04/29 09:06:14;;;;;;;7.60;5.13;;;14.90;70.00;;;;;;4940880;28;20034;-77
2023/04/29 09:08:40;;;;;;;6.05;4.60;;;15.00;69.80;;;;;;4988271;28;20494;-77
2023/04/29 09:11:10;;;;;;;6.50;4.85;;;15.10;69.90;;;;;;4999985;28;20037;-77
2023/04/29 09:13:36;;;;;;;6.38;4.82;;;15.10;69.80;;;;;;5016120;28;20037;-77
2023/04/29 09:16:02;;;;;;;6.28;4.60;;;15.20;69.70;;;;;;4984228;28;20032;-77
2023/04/29 09:18:50;;;;;;;6.70;4.97;;;15.20;69.60;;;;;;5016310;28;20088;-77
2023/04/29 09:21:20;;;;;;;6.00;4.60;;;15.30;69.70;;;;;;4999942;28;20044;-77
2023/04/29 09:23:47;;;;;;;6.05;4.53;;;15.40;69.60;;;;;;5017107;28;20041;-78
2023/04/29 09:26:14;;;;;;;7.00;5.32;;;15.40;69.50;;;;;;5033962;28;20092;-77
2023/04/29 09:28:42;;;;;;;5.93;4.22;;;15.50;69.50;;;;;;4999825;28;20482;-77
2023/04/29 09:31:09;;;;;;;5.88;4.40;;;15.50;69.30;;;;;;5016312;28;20473;-77
2023/04/29 09:33:56;;;;;;;7.25;5.30;;;15.60;69.30;;;;;;5000355;28;20083;-76
2023/04/29 09:36:44;;;;;;;6.03;4.22;;;15.70;69.30;;;;;;5016871;28;20072;-76
2023/04/29 09:39:16;;;;;;;5.60;4.30;;;15.70;69.20;;;;;;5016147;28;20087;-77
2023/04/29 09:41:51;;;;;;;6.00;4.93;;;15.80;69.10;;;;;;5015886;28;20029;-76
2023/04/29 09:44:17;;;;;;;;;;;15.90;69.00;;;;;;4999748;28;20034;-77
2023/04/29 09:46:43;;;;;;;5.32;3.83;;;15.90;68.90;;;;;;5015885;28;19917;-77
2023/04/29 09:49:26;;;;;;;5.80;4.13;;;16.00;68.80;;;;;;4999663;28;20025;-77
2023/04/29 09:51:57;;;;;;;7.80;4.53;;;16.00;68.80;;;;;;5000314;28;20061;-76
2023/04/29 09:54:24;;;;;;;5.90;4.20;;;16.10;68.80;;;;;;5016674;28;20112;-76
2023/04/29 09:56:51;;;;;;;6.22;4.38;;;16.10;68.80;;;;;;5015836;28;20441;-77
2023/04/29 09:59:21;;;;;;;5.95;4.07;;;16.20;68.80;;;;;;5033146;28;20025;-76
2023/04/29 10:01:56;;;;;;;5.72;4.18;;;16.20;68.80;;;;;;4999372;28;20034;-76
2023/04/29 10:04:25;;;;;;;5.22;4.32;;;16.30;68.80;;;;;;5015515;28;20067;-76
2023/04/29 10:06:52;;;;;;;6.45;3.63;;;16.30;68.70;;;;;;5015742;28;20068;-77
2023/04/29 10:09:19;;;;;;;5.05;3.60;;;16.40;68.70;;;;;;4999049;28;20124;-76
2023/04/29 10:11:50;;;;;;;5.03;3.70;;;16.50;68.70;;;;;;4982806;28;20029;-76
2023/04/29 10:14:18;;;;;;;5.32;3.85;;;16.50;68.60;;;;;;4998925;28;20037;-77
2023/04/29 10:16:57;;;;;;;5.35;3.95;;;16.60;68.60;;;;;;5016341;28;20037;-77
2023/04/29 10:19:40;;;;;;;4.88;3.63;;;16.60;68.50;;;;;;5033488;28;20049;-76
2023/04/29 10:22:11;;;;;;;4.82;3.63;;;16.70;68.50;;;;;;5033497;28;20099;-76
2023/04/29 10:24:38;;;;;;;5.00;3.67;;;16.70;68.40;;;;;;4999520;28;20040;-77
2023/04/29 10:27:11;;;;;;;5.13;3.78;;;16.80;68.40;;;;;;5017090;28;20087;-77
2023/04/29 10:29:38;;;;;;;4.75;3.42;;;16.80;68.40;;;;;;5019729;28;20037;-76
2023/04/29 10:32:08;;;;;;;5.38;3.67;;;16.90;68.30;;;;;;5037629;28;20105;-76
2023/04/29 10:34:37;;;;;;;4.57;3.38;;;16.90;68.30;;;;;;5003101;28;20033;-77
2023/04/29 10:37:04;;;;;;;5.55;3.55;;;17.00;68.30;;;;;;5037192;28;20033;-77
2023/04/29 10:39:41;;;;;;;5.50;3.50;;;17.00;68.20;;;;;;4971346;28;20348;-80
2023/04/29 10:42:20;;;;;;;4.63;3.50;;;17.10;68.20;;;;;;5019347;28;20053;-79
2023/04/29 10:45:18;;;;;;;4.55;3.15;;;17.10;68.20;;;;;;5019247;28;20033;-79
2023/04/29 10:48:05;;;;;;;4.20;3.08;;;17.20;68.20;;;;;;5002781;28;20564;-78
2023/04/29 10:50:51;;;;;;;4.38;3.30;;;17.20;68.10;;;;;;5018958;28;20040;-77
2023/04/29 10:53:18;;;;;;;4.35;3.20;;;17.30;68.10;;;;;;5008684;28;20087;-78
2023/04/29 10:55:58;;;;;;;4.15;3.30;;;17.30;68.00;;;;;;5036982;28;20458;-76
2023/04/29 10:58:37;;;;;;;4.97;3.65;;;17.30;68.00;;;;;;5003838;28;20029;-77
2023/04/29 11:01:04;;;;;;;4.25;3.17;;;17.40;68.00;;;;;;5018609;28;20034;-77
2023/04/29 11:03:44;;;;;;;4.95;3.47;;;17.40;67.90;;;;;;5002382;28;20056;-77
2023/04/29 11:06:10;;;;;;;3.97;2.72;;;17.50;68.00;;;;;;5018662;28;20031;-77
2023/04/29 11:08:40;;;;;;;4.03;2.65;;;17.50;67.90;;;;;;5001979;28;20440;-77
2023/04/29 11:11:06;;;;;;;3.95;2.92;;;17.60;67.90;;;;;;5002641;28;20048;-76
2023/04/29 11:13:36;;;;;;;4.13;3.10;;;17.50;67.80;;;;;;5002563;28;20029;-76
2023/04/29 11:16:06;;;;;;;4.18;3.30;;;17.60;67.80;;;;;;5019094;28;20159;-77
2023/04/29 11:18:33;;;;;;;3.83;2.80;;;17.60;67.80;;;;;;5018245;28;20054;-77
2023/04/29 11:21:05;;;;;;;3.92;2.92;;;17.60;67.70;;;;;;5002545;28;20037;-77
2023/04/29 11:23:43;;;;;;;4.35;3.00;;;17.70;67.70;;;;;;5018812;28;20033;-77
2023/04/29 11:26:09;;;;;;;4.55;3.10;;;17.70;67.70;;;;;;5002709;28;20040;-77
2023/04/29 11:28:35;;;;;;;4.70;3.08;;;17.80;67.70;;;;;;5018845;28;20033;-77
2023/04/29 11:31:04;;;;;;;4.00;2.85;;;17.80;67.60;;;;;;4985843;28;20393;-77
2023/04/29 11:33:32;;;;;;;3.92;2.85;;;17.80;67.60;;;;;;5036645;28;20462;-77
2023/04/29 11:35:58;;;;;;;3.67;2.80;;;17.90;67.60;;;;;;5019145;28;20038;-77
2023/04/29 11:38:29;;;;;;;3.75;3.17;;;17.90;67.50;;;;;;5001816;28;20063;-77
2023/04/29 11:40:55;;;;;;;3.78;2.92;;;18.00;67.60;;;;;;5018183;28;20030;-77
2023/04/29 11:43:23;;;;;;;3.75;2.75;;;18.00;67.50;;;;;;5017995;28;20109;-77
2023/04/29 11:45:50;;;;;;;3.67;2.55;;;18.00;67.40;;;;;;5017890;28;20486;-77
2023/04/29 11:48:19;;;;;;;3.92;2.80;;;18.10;67.40;;;;;;5017989;28;20029;-76
2023/04/29 11:50:50;;;;;;;3.63;2.78;;;18.10;67.30;;;;;;5035696;28;20049;-77
2023/04/29 11:53:20;;;;;;;4.38;2.92;;;18.20;67.30;;;;;;5036275;28;20525;-77
2023/04/29 11:55:46;;;;;;;4.15;2.20;;;18.20;67.20;;;;;;5017662;28;20022;-77
2023/04/29 11:58:14;;;;;;;3.92;2.80;;;18.20;67.20;;;;;;5001628;28;20033;-77
2023/04/29 12:00:40;;;;;;;3.72;2.67;;;18.20;67.10;;;;;;5001437;28;20116;-77
2023/04/29 12:03:17;;;;;;;3.35;2.58;;;18.30;67.10;;;;;;5002102;28;20116;-76
2023/04/29 12:05:46;;;;;;;3.38;2.65;;;18.40;67.10;;;;;;5035757;28;20030;-76
2023/04/29 12:08:13;;;;;;;3.95;2.67;;;18.40;67.10;;;;;;5035511;28;20034;-77
2023/04/29 12:10:38;;;;;;;3.53;2.45;;;18.40;67.00;;;;;;5001183;28;20034;-77
2023/04/29 12:13:04;;;;;;;3.75;2.70;;;18.40;66.90;;;;;;5017945;28;20030;-77
2023/04/29 12:15:31;;;;;;;3.85;2.70;;;18.50;66.90;;;;;;5001668;28;20029;-77
2023/04/29 12:17:59;;;;;;;3.30;2.55;;;18.50;66.90;;;;;;5017482;28;20040;-77
2023/04/29 12:20:25;;;;;;;3.08;2.47;;;18.60;66.90;;;;;;5001275;28;20045;-75
2023/04/29 12:22:52;;;;;;;3.28;2.50;;;18.60;66.80;;;;;;5001599;28;20042;-76
2023/04/29 12:25:17;;;;;;;3.45;2.50;;;18.60;66.80;;;;;;5000735;28;20026;-75
2023/04/29 12:27:43;;;;;;;3.17;2.58;;;18.70;66.80;;;;;;5018091;28;20044;-75
2023/04/29 12:30:10;;;;;;;3.58;2.58;;;18.70;66.80;;;;;;5017306;28;20037;-75
2023/04/29 12:32:36;;;;;;;3.50;2.30;;;18.70;66.80;;;;;;5017604;28;20116;-75
2023/04/29 12:35:02;;;;;;;3.33;2.40;;;18.80;66.70;;;;;;5000995;28;20518;-76
2023/04/29 12:37:27;;;;;;;3.90;2.65;;;18.80;66.70;;;;;;5016970;28;20156;-75
2023/04/29 12:39:54;;;;;;;3.05;2.40;;;18.80;66.60;;;;;;5000834;28;20057;-76
2023/04/29 12:42:20;;;;;;;2.88;2.20;;;18.90;66.60;;;;;;5000835;28;20123;-76
2023/04/29 12:44:48;;;;;;;2.92;2.25;;;18.90;66.50;;;;;;5034288;28;20486;-76
2023/04/29 12:47:15;;;;;;;3.38;2.40;;;19.00;66.50;;;;;;5034542;28;20033;-76
2023/04/29 12:49:42;;;;;;;3.22;2.60;;;19.00;66.50;;;;;;5033330;28;20087;-76
2023/04/29 12:52:09;;;;;;;3.33;2.20;;;19.10;66.50;;;;;;5016548;28;20025;-76
2023/04/29 12:54:36;;;;;;;3.40;2.40;;;19.10;66.40;;;;;;5016230;28;20042;-76
2023/04/29 12:57:03;;;;;;;3.03;2.42;;;19.10;66.30;;;;;;5034317;28;20029;-76